sensor_id;sensor_type;location;lat;lon;timestamp;pressure;altitude;pressure_sealevel;temperature;humidity
73936;BME280;62287;50.858;0.252;2023-07-22T00:00:11;101305.73;;;18.41;38.44
73936;BME280;62287;50.858;0.252;2023-07-22T00:00:46;101306.09;;;17.97;38.46
73936;BME280;62287;50.858;0.252;2023-07-22T00:01:17;101305.78;;;18.93;38.45
73936;BME280;62287;50.858;0.252;2023-07-22T00:01:49;101306.26;;;18.49;38.42
73936;BME280;62287;50.858;0.252;2023-07-22T00:02:28;101306.65;;;18.42;38.47
73936;BME280;62287;50.858;0.252;2023-07-22T00:03:47;101305.49;;;18.53;38.39
73936;BME280;62287;50.858;0.252;2023-07-22T00:04:20;101306.75;;;18.80;38.47
73936;BME280;62287;50.858;0.252;2023-07-22T00:05:03;101306.24;;;18.49;38.45
73936;BME280;62287;50.858;0.252;2023-07-22T00:05:39;101305.49;;;18.80;38.46
73936;BME280;62287;50.858;0.252;2023-07-22T00:06:11;101306.62;;;18.52;38.48
73936;BME280;62287;50.858;0.252;2023-07-22T00:06:43;101304.57;;;18.45;38.54
73936;BME280;62287;50.858;0.252;2023-07-22T00:07:17;101304.51;;;18.28;38.53
73936;BME280;62287;50.858;0.252;2023-07-22T00:07:49;101305.00;;;18.01;38.53
73936;BME280;62287;50.858;0.252;2023-07-22T00:08:46;101304.00;;;18.73;38.52
73936;BME280;62287;50.858;0.252;2023-07-22T00:09:17;101302.91;;;18.32;38.58
73936;BME280;62287;50.858;0.252;2023-07-22T00:09:52;101303.49;;;18.25;38.73
73936;BME280;62287;50.858;0.252;2023-07-22T00:10:25;101302.13;;;18.62;38.71
73936;BME280;62287;50.858;0.252;2023-07-22T00:11:01;101302.08;;;17.78;38.71
73936;BME280;62287;50.858;0.252;2023-07-22T00:11:35;101302.56;;;18.49;38.51
73936;BME280;62287;50.858;0.252;2023-07-22T00:12:07;101301.63;;;18.26;38.58
73936;BME280;62287;50.858;0.252;2023-07-22T00:12:39;101299.94;;;18.68;38.60
73936;BME280;62287;50.858;0.252;2023-07-22T00:13:13;101298.68;;;18.21;38.65
73936;BME280;62287;50.858;0.252;2023-07-22T00:13:45;101301.51;;;18.65;38.60
73936;BME280;62287;50.858;0.252;2023-07-22T00:14:19;101300.69;;;18.22;38.56
73936;BME280;62287;50.858;0.252;2023-07-22T00:14:57;101300.67;;;18.38;38.42
73936;BME280;62287;50.858;0.252;2023-07-22T00:15:29;101299.48;;;18.45;38.42
73936;BME280;62287;50.858;0.252;2023-07-22T00:16:04;101300.27;;;18.09;38.49
73936;BME280;62287;50.858;0.252;2023-07-22T00:16:42;101300.02;;;18.16;38.61
73936;BME280;62287;50.858;0.252;2023-07-22T00:17:14;101302.76;;;18.39;38.47
73936;BME280;62287;50.858;0.252;2023-07-22T00:17:47;101302.26;;;18.40;38.47
73936;BME280;62287;50.858;0.252;2023-07-22T00:18:18;101302.87;;;18.36;38.52
73936;BME280;62287;50.858;0.252;2023-07-22T00:18:50;101303.64;;;18.46;38.44
73936;BME280;62287;50.858;0.252;2023-07-22T00:19:23;101305.62;;;18.58;38.41
73936;BME280;62287;50.858;0.252;2023-07-22T00:20:48;101304.61;;;18.59;38.41
73936;BME280;62287;50.858;0.252;2023-07-22T00:21:20;101304.75;;;18.94;38.36
73936;BME280;62287;50.858;0.252;2023-07-22T00:21:53;101306.15;;;18.57;38.38
73936;BME280;62287;50.858;0.252;2023-07-22T00:22:25;101303.97;;;18.63;38.30
73936;BME280;62287;50.858;0.252;2023-07-22T00:24:58;101305.05;;;18.64;38.27
73936;BME280;62287;50.858;0.252;2023-07-22T00:26:20;101298.68;;;18.69;38.44
73936;BME280;62287;50.858;0.252;2023-07-22T00:26:52;101300.40;;;18.41;38.40
73936;BME280;62287;50.858;0.252;2023-07-22T00:27:24;101299.11;;;18.46;38.35
73936;BME280;62287;50.858;0.252;2023-07-22T00:27:57;101299.82;;;18.44;38.44
73936;BME280;62287;50.858;0.252;2023-07-22T00:28:34;101300.56;;;18.58;38.42
73936;BME280;62287;50.858;0.252;2023-07-22T00:29:05;101298.22;;;18.71;38.31
73936;BME280;62287;50.858;0.252;2023-07-22T00:29:37;101298.51;;;18.83;38.17
73936;BME280;62287;50.858;0.252;2023-07-22T00:30:09;101297.31;;;18.90;38.24
73936;BME280;62287;50.858;0.252;2023-07-22T00:30:40;101296.81;;;18.47;38.36
73936;BME280;62287;50.858;0.252;2023-07-22T00:31:13;101296.78;;;18.64;38.30
73936;BME280;62287;50.858;0.252;2023-07-22T00:31:44;101296.76;;;18.59;38.29
73936;BME280;62287;50.858;0.252;2023-07-22T00:32:16;101296.39;;;18.36;38.26
73936;BME280;62287;50.858;0.252;2023-07-22T00:32:49;101293.87;;;18.57;38.22
73936;BME280;62287;50.858;0.252;2023-07-22T00:33:20;101294.57;;;18.39;38.16
73936;BME280;62287;50.858;0.252;2023-07-22T00:33:52;101294.05;;;18.81;37.99
73936;BME280;62287;50.858;0.252;2023-07-22T00:34:29;101292.81;;;19.27;37.69
73936;BME280;62287;50.858;0.252;2023-07-22T00:35:02;101293.78;;;18.16;37.87
73936;BME280;62287;50.858;0.252;2023-07-22T00:35:34;101293.51;;;18.95;37.97
73936;BME280;62287;50.858;0.252;2023-07-22T00:36:06;101291.90;;;18.86;38.07
73936;BME280;62287;50.858;0.252;2023-07-22T00:36:40;101291.55;;;18.20;38.18
73936;BME280;62287;50.858;0.252;2023-07-22T00:37:13;101291.92;;;18.77;38.00
73936;BME280;62287;50.858;0.252;2023-07-22T00:37:45;101293.74;;;19.43;37.78
73936;BME280;62287;50.858;0.252;2023-07-22T00:38:16;101293.17;;;18.97;37.89
73936;BME280;62287;50.858;0.252;2023-07-22T00:38:48;101291.95;;;19.17;37.66
73936;BME280;62287;50.858;0.252;2023-07-22T00:39:20;101294.11;;;18.92;37.87
73936;BME280;62287;50.858;0.252;2023-07-22T00:39:54;101291.84;;;18.64;37.90
73936;BME280;62287;50.858;0.252;2023-07-22T00:40:25;101290.89;;;19.02;37.91
73936;BME280;62287;50.858;0.252;2023-07-22T00:40:58;101292.06;;;18.73;38.01
73936;BME280;62287;50.858;0.252;2023-07-22T00:41:44;101291.31;;;18.76;38.07
73936;BME280;62287;50.858;0.252;2023-07-22T00:42:16;101288.46;;;18.70;38.04
73936;BME280;62287;50.858;0.252;2023-07-22T00:42:47;101290.52;;;18.87;37.97
73936;BME280;62287;50.858;0.252;2023-07-22T00:43:18;101288.90;;;18.80;37.94
73936;BME280;62287;50.858;0.252;2023-07-22T00:43:49;101290.19;;;19.28;38.04
73936;BME280;62287;50.858;0.252;2023-07-22T00:44:21;101289.08;;;18.42;38.10
73936;BME280;62287;50.858;0.252;2023-07-22T00:44:59;101288.81;;;18.79;38.20
73936;BME280;62287;50.858;0.252;2023-07-22T00:45:32;101288.10;;;18.79;38.17
73936;BME280;62287;50.858;0.252;2023-07-22T00:46:15;101289.35;;;18.69;38.24
73936;BME280;62287;50.858;0.252;2023-07-22T00:46:50;101289.79;;;18.65;38.27
73936;BME280;62287;50.858;0.252;2023-07-22T00:47:26;101287.13;;;18.54;38.37
73936;BME280;62287;50.858;0.252;2023-07-22T00:47:59;101288.77;;;18.53;38.31
73936;BME280;62287;50.858;0.252;2023-07-22T00:48:30;101287.46;;;18.26;38.22
73936;BME280;62287;50.858;0.252;2023-07-22T00:49:04;101287.74;;;18.73;38.17
73936;BME280;62287;50.858;0.252;2023-07-22T00:49:39;101287.55;;;18.56;38.26
73936;BME280;62287;50.858;0.252;2023-07-22T00:50:12;101286.43;;;18.37;38.26
73936;BME280;62287;50.858;0.252;2023-07-22T00:50:48;101287.06;;;19.07;38.30
73936;BME280;62287;50.858;0.252;2023-07-22T00:51:26;101287.01;;;18.56;38.44
73936;BME280;62287;50.858;0.252;2023-07-22T00:52:06;101287.57;;;18.76;38.45
73936;BME280;62287;50.858;0.252;2023-07-22T00:52:39;101286.05;;;18.15;38.44
73936;BME280;62287;50.858;0.252;2023-07-22T00:53:12;101285.39;;;18.66;38.27
73936;BME280;62287;50.858;0.252;2023-07-22T00:53:46;101285.37;;;18.41;38.14
73936;BME280;62287;50.858;0.252;2023-07-22T00:54:20;101284.64;;;18.58;38.39
73936;BME280;62287;50.858;0.252;2023-07-22T00:54:53;101281.26;;;18.33;38.48
73936;BME280;62287;50.858;0.252;2023-07-22T00:55:25;101282.03;;;18.08;38.36
73936;BME280;62287;50.858;0.252;2023-07-22T00:55:58;101284.60;;;18.48;38.41
73936;BME280;62287;50.858;0.252;2023-07-22T00:56:30;101282.04;;;18.36;38.54
73936;BME280;62287;50.858;0.252;2023-07-22T00:57:06;101282.37;;;18.46;38.51
73936;BME280;62287;50.858;0.252;2023-07-22T00:57:39;101283.05;;;18.63;38.47
73936;BME280;62287;50.858;0.252;2023-07-22T00:58:11;101283.15;;;18.60;38.43
73936;BME280;62287;50.858;0.252;2023-07-22T00:58:44;101281.21;;;18.97;38.39
73936;BME280;62287;50.858;0.252;2023-07-22T00:59:16;101281.03;;;18.39;38.22
73936;BME280;62287;50.858;0.252;2023-07-22T00:59:53;101279.73;;;18.22;38.58
73936;BME280;62287;50.858;0.252;2023-07-22T01:00:26;101282.07;;;18.36;38.58
73936;BME280;62287;50.858;0.252;2023-07-22T01:00:56;101279.85;;;18.28;38.65
73936;BME280;62287;50.858;0.252;2023-07-22T01:01:31;101279.26;;;17.96;38.67
73936;BME280;62287;50.858;0.252;2023-07-22T01:02:04;101278.40;;;18.19;38.67
73936;BME280;62287;50.858;0.252;2023-07-22T01:02:35;101276.66;;;18.71;38.67
73936;BME280;62287;50.858;0.252;2023-07-22T01:03:06;101277.11;;;18.35;38.61
73936;BME280;62287;50.858;0.252;2023-07-22T01:03:40;101272.19;;;18.27;38.58
73936;BME280;62287;50.858;0.252;2023-07-22T01:04:15;101273.95;;;18.20;38.57
73936;BME280;62287;50.858;0.252;2023-07-22T01:04:49;101270.47;;;18.20;38.68
73936;BME280;62287;50.858;0.252;2023-07-22T01:05:22;101269.82;;;18.24;38.61
73936;BME280;62287;50.858;0.252;2023-07-22T01:05:55;101271.03;;;18.59;38.58
73936;BME280;62287;50.858;0.252;2023-07-22T01:06:26;101270.07;;;18.28;38.61
73936;BME280;62287;50.858;0.252;2023-07-22T01:07:05;101268.23;;;18.64;38.69
73936;BME280;62287;50.858;0.252;2023-07-22T01:07:37;101271.03;;;18.43;38.64
73936;BME280;62287;50.858;0.252;2023-07-22T01:08:10;101269.41;;;18.27;38.64
73936;BME280;62287;50.858;0.252;2023-07-22T01:08:42;101271.68;;;18.71;38.58
73936;BME280;62287;50.858;0.252;2023-07-22T01:09:17;101269.27;;;18.17;38.64
73936;BME280;62287;50.858;0.252;2023-07-22T01:09:49;101265.50;;;18.54;38.62
73936;BME280;62287;50.858;0.252;2023-07-22T01:10:21;101265.83;;;18.39;38.62
73936;BME280;62287;50.858;0.252;2023-07-22T01:10:55;101264.51;;;18.67;38.62
73936;BME280;62287;50.858;0.252;2023-07-22T01:11:28;101264.75;;;18.75;38.55
73936;BME280;62287;50.858;0.252;2023-07-22T01:12:00;101266.58;;;18.43;38.54
73936;BME280;62287;50.858;0.252;2023-07-22T01:12:31;101266.66;;;18.66;38.58
73936;BME280;62287;50.858;0.252;2023-07-22T01:13:10;101265.04;;;18.35;38.64
73936;BME280;62287;50.858;0.252;2023-07-22T01:13:42;101266.07;;;18.62;38.65
73936;BME280;62287;50.858;0.252;2023-07-22T01:14:15;101263.95;;;18.21;38.68
73936;BME280;62287;50.858;0.252;2023-07-22T01:14:48;101262.17;;;18.34;38.83
73936;BME280;62287;50.858;0.252;2023-07-22T01:15:21;101260.63;;;18.21;38.73
73936;BME280;62287;50.858;0.252;2023-07-22T01:15:53;101263.80;;;18.26;38.67
73936;BME280;62287;50.858;0.252;2023-07-22T01:16:26;101260.87;;;17.85;38.70
73936;BME280;62287;50.858;0.252;2023-07-22T01:16:57;101261.11;;;18.29;38.65
73936;BME280;62287;50.858;0.252;2023-07-22T01:17:28;101262.87;;;18.88;38.58
73936;BME280;62287;50.858;0.252;2023-07-22T01:18:00;101260.65;;;18.40;38.59
73936;BME280;62287;50.858;0.252;2023-07-22T01:18:34;101262.17;;;18.54;38.46
73936;BME280;62287;50.858;0.252;2023-07-22T01:19:06;101259.61;;;18.48;38.49
73936;BME280;62287;50.858;0.252;2023-07-22T01:19:37;101261.36;;;18.09;38.41
73936;BME280;62287;50.858;0.252;2023-07-22T01:20:11;101259.48;;;18.30;38.28
73936;BME280;62287;50.858;0.252;2023-07-22T01:20:44;101260.04;;;18.48;38.09
73936;BME280;62287;50.858;0.252;2023-07-22T01:21:17;101261.41;;;19.22;38.10
73936;BME280;62287;50.858;0.252;2023-07-22T01:21:50;101261.30;;;18.80;38.07
73936;BME280;62287;50.858;0.252;2023-07-22T01:22:22;101261.76;;;18.26;38.25
73936;BME280;62287;50.858;0.252;2023-07-22T01:22:56;101261.71;;;18.65;38.27
73936;BME280;62287;50.858;0.252;2023-07-22T01:23:27;101262.47;;;18.52;38.32
73936;BME280;62287;50.858;0.252;2023-07-22T01:24:02;101261.43;;;18.46;38.36
73936;BME280;62287;50.858;0.252;2023-07-22T01:24:34;101260.25;;;17.90;38.52
73936;BME280;62287;50.858;0.252;2023-07-22T01:25:08;101259.97;;;18.06;38.71
73936;BME280;62287;50.858;0.252;2023-07-22T01:25:41;101258.59;;;18.21;38.63
73936;BME280;62287;50.858;0.252;2023-07-22T01:26:12;101255.61;;;17.88;38.56
73936;BME280;62287;50.858;0.252;2023-07-22T01:26:44;101255.48;;;17.98;38.48
73936;BME280;62287;50.858;0.252;2023-07-22T01:27:17;101255.23;;;18.14;38.54
73936;BME280;62287;50.858;0.252;2023-07-22T01:27:51;101255.77;;;18.31;38.51
73936;BME280;62287;50.858;0.252;2023-07-22T01:28:25;101255.75;;;18.25;38.48
73936;BME280;62287;50.858;0.252;2023-07-22T01:29:04;101255.06;;;17.79;38.50
73936;BME280;62287;50.858;0.252;2023-07-22T01:29:37;101255.75;;;17.78;38.48
73936;BME280;62287;50.858;0.252;2023-07-22T01:30:10;101256.55;;;18.68;38.47
73936;BME280;62287;50.858;0.252;2023-07-22T01:30:41;101258.24;;;18.79;38.40
73936;BME280;62287;50.858;0.252;2023-07-22T01:31:12;101258.12;;;18.61;38.54
73936;BME280;62287;50.858;0.252;2023-07-22T01:31:50;101254.17;;;18.29;38.67
73936;BME280;62287;50.858;0.252;2023-07-22T01:32:21;101255.99;;;18.53;38.63
73936;BME280;62287;50.858;0.252;2023-07-22T01:32:52;101255.29;;;18.08;38.67
73936;BME280;62287;50.858;0.252;2023-07-22T01:33:25;101254.57;;;18.01;38.72
73936;BME280;62287;50.858;0.252;2023-07-22T01:33:57;101252.93;;;18.21;38.60
73936;BME280;62287;50.858;0.252;2023-07-22T01:34:30;101251.67;;;18.53;38.58
73936;BME280;62287;50.858;0.252;2023-07-22T01:35:03;101251.16;;;18.21;38.67
73936;BME280;62287;50.858;0.252;2023-07-22T01:35:34;101251.36;;;18.32;38.79
73936;BME280;62287;50.858;0.252;2023-07-22T01:36:07;101250.27;;;17.94;38.83
73936;BME280;62287;50.858;0.252;2023-07-22T01:36:38;101247.38;;;18.14;38.86
73936;BME280;62287;50.858;0.252;2023-07-22T01:37:09;101245.85;;;17.89;38.91
73936;BME280;62287;50.858;0.252;2023-07-22T01:37:41;101244.54;;;18.13;38.76
73936;BME280;62287;50.858;0.252;2023-07-22T01:38:13;101242.68;;;18.01;38.74
73936;BME280;62287;50.858;0.252;2023-07-22T01:38:44;101243.61;;;18.05;38.77
73936;BME280;62287;50.858;0.252;2023-07-22T01:39:16;101243.09;;;18.55;38.74
73936;BME280;62287;50.858;0.252;2023-07-22T01:39:48;101241.40;;;18.50;38.66
73936;BME280;62287;50.858;0.252;2023-07-22T01:40:19;101241.76;;;18.26;38.64
73936;BME280;62287;50.858;0.252;2023-07-22T01:40:51;101240.61;;;18.17;38.68
73936;BME280;62287;50.858;0.252;2023-07-22T01:41:24;101238.82;;;18.40;38.84
73936;BME280;62287;50.858;0.252;2023-07-22T01:41:56;101237.60;;;18.42;38.91
73936;BME280;62287;50.858;0.252;2023-07-22T01:42:29;101236.13;;;18.37;38.86
73936;BME280;62287;50.858;0.252;2023-07-22T01:43:02;101236.96;;;18.25;38.78
73936;BME280;62287;50.858;0.252;2023-07-22T01:43:33;101236.13;;;18.18;38.77
73936;BME280;62287;50.858;0.252;2023-07-22T01:44:06;101235.91;;;18.64;38.74
73936;BME280;62287;50.858;0.252;2023-07-22T01:44:39;101237.28;;;18.04;38.85
73936;BME280;62287;50.858;0.252;2023-07-22T01:45:17;101239.68;;;18.53;38.81
73936;BME280;62287;50.858;0.252;2023-07-22T01:45:53;101239.58;;;18.17;38.80
73936;BME280;62287;50.858;0.252;2023-07-22T01:46:25;101242.38;;;18.07;38.83
73936;BME280;62287;50.858;0.252;2023-07-22T01:46:56;101238.93;;;18.24;38.64
73936;BME280;62287;50.858;0.252;2023-07-22T01:47:27;101240.71;;;18.29;38.56
73936;BME280;62287;50.858;0.252;2023-07-22T01:47:59;101240.11;;;18.27;38.53
73936;BME280;62287;50.858;0.252;2023-07-22T01:48:29;101238.61;;;18.22;38.58
73936;BME280;62287;50.858;0.252;2023-07-22T01:49:04;101238.24;;;18.50;38.71
73936;BME280;62287;50.858;0.252;2023-07-22T01:49:37;101238.14;;;18.14;38.76
73936;BME280;62287;50.858;0.252;2023-07-22T01:50:09;101236.09;;;17.72;38.79
73936;BME280;62287;50.858;0.252;2023-07-22T01:50:43;101236.67;;;18.64;38.76
73936;BME280;62287;50.858;0.252;2023-07-22T01:51:20;101238.15;;;18.21;38.77
73936;BME280;62287;50.858;0.252;2023-07-22T01:51:55;101235.19;;;18.24;38.68
73936;BME280;62287;50.858;0.252;2023-07-22T01:52:28;101234.32;;;18.59;38.71
73936;BME280;62287;50.858;0.252;2023-07-22T01:53:03;101235.48;;;18.37;38.65
73936;BME280;62287;50.858;0.252;2023-07-22T01:53:35;101236.13;;;18.31;38.70
73936;BME280;62287;50.858;0.252;2023-07-22T01:54:07;101236.32;;;18.43;38.67
73936;BME280;62287;50.858;0.252;2023-07-22T01:54:40;101234.87;;;18.85;38.49
73936;BME280;62287;50.858;0.252;2023-07-22T01:55:13;101234.81;;;18.29;38.65
73936;BME280;62287;50.858;0.252;2023-07-22T01:55:44;101232.64;;;18.18;38.72
73936;BME280;62287;50.858;0.252;2023-07-22T01:56:15;101233.29;;;18.39;38.57
73936;BME280;62287;50.858;0.252;2023-07-22T01:56:47;101235.51;;;18.33;38.62
73936;BME280;62287;50.858;0.252;2023-07-22T01:57:19;101232.76;;;18.38;38.57
73936;BME280;62287;50.858;0.252;2023-07-22T01:57:51;101234.39;;;18.53;38.56
73936;BME280;62287;50.858;0.252;2023-07-22T01:58:24;101234.24;;;18.39;38.65
73936;BME280;62287;50.858;0.252;2023-07-22T01:58:57;101235.28;;;18.70;38.80
73936;BME280;62287;50.858;0.252;2023-07-22T01:59:32;101235.01;;;18.20;38.78
73936;BME280;62287;50.858;0.252;2023-07-22T02:00:05;101235.83;;;18.69;38.77
73936;BME280;62287;50.858;0.252;2023-07-22T02:00:37;101234.70;;;18.44;38.58
73936;BME280;62287;50.858;0.252;2023-07-22T02:01:10;101237.07;;;18.58;38.52
73936;BME280;62287;50.858;0.252;2023-07-22T02:01:42;101236.03;;;18.64;38.62
73936;BME280;62287;50.858;0.252;2023-07-22T02:02:14;101236.14;;;18.96;38.35
73936;BME280;62287;50.858;0.252;2023-07-22T02:02:46;101234.18;;;18.89;38.38
73936;BME280;62287;50.858;0.252;2023-07-22T02:03:20;101233.96;;;18.12;38.42
73936;BME280;62287;50.858;0.252;2023-07-22T02:03:52;101235.28;;;18.81;38.48
73936;BME280;62287;50.858;0.252;2023-07-22T02:04:25;101234.08;;;18.19;38.69
73936;BME280;62287;50.858;0.252;2023-07-22T02:05:02;101234.52;;;18.29;38.51
73936;BME280;62287;50.858;0.252;2023-07-22T02:05:36;101234.60;;;18.71;38.55
73936;BME280;62287;50.858;0.252;2023-07-22T02:06:08;101232.10;;;18.81;38.45
73936;BME280;62287;50.858;0.252;2023-07-22T02:06:40;101231.03;;;18.41;38.46
73936;BME280;62287;50.858;0.252;2023-07-22T02:07:12;101230.75;;;18.38;38.55
73936;BME280;62287;50.858;0.252;2023-07-22T02:07:45;101230.48;;;18.23;38.58
73936;BME280;62287;50.858;0.252;2023-07-22T02:08:18;101227.76;;;18.56;38.65
73936;BME280;62287;50.858;0.252;2023-07-22T02:08:49;101226.23;;;18.49;38.71
73936;BME280;62287;50.858;0.252;2023-07-22T02:09:21;101225.25;;;18.15;38.66
73936;BME280;62287;50.858;0.252;2023-07-22T02:09:52;101225.01;;;17.79;38.58
73936;BME280;62287;50.858;0.252;2023-07-22T02:10:25;101223.67;;;18.33;38.51
73936;BME280;62287;50.858;0.252;2023-07-22T02:11:02;101222.39;;;17.98;38.51
73936;BME280;62287;50.858;0.252;2023-07-22T02:11:36;101222.30;;;18.07;38.45
73936;BME280;62287;50.858;0.252;2023-07-22T02:12:08;101223.18;;;17.99;38.43
73936;BME280;62287;50.858;0.252;2023-07-22T02:12:41;101223.00;;;18.12;38.58
73936;BME280;62287;50.858;0.252;2023-07-22T02:13:13;101224.69;;;18.25;38.57
73936;BME280;62287;50.858;0.252;2023-07-22T02:13:45;101222.03;;;18.36;38.52
73936;BME280;62287;50.858;0.252;2023-07-22T02:14:21;101221.58;;;18.34;38.48
73936;BME280;62287;50.858;0.252;2023-07-22T02:14:58;101221.03;;;18.93;38.17
73936;BME280;62287;50.858;0.252;2023-07-22T02:15:35;101222.38;;;18.60;38.10
73936;BME280;62287;50.858;0.252;2023-07-22T02:16:07;101223.44;;;18.48;38.22
73936;BME280;62287;50.858;0.252;2023-07-22T02:16:40;101224.38;;;18.65;38.28
73936;BME280;62287;50.858;0.252;2023-07-22T02:17:16;101223.92;;;18.36;38.51
73936;BME280;62287;50.858;0.252;2023-07-22T02:17:48;101222.67;;;17.80;38.58
73936;BME280;62287;50.858;0.252;2023-07-22T02:18:20;101222.88;;;18.44;38.33
73936;BME280;62287;50.858;0.252;2023-07-22T02:18:52;101222.69;;;18.07;38.40
73936;BME280;62287;50.858;0.252;2023-07-22T02:19:24;101224.41;;;18.23;38.16
73936;BME280;62287;50.858;0.252;2023-07-22T02:19:58;101221.94;;;18.42;38.12
73936;BME280;62287;50.858;0.252;2023-07-22T02:20:31;101223.87;;;18.65;38.12
73936;BME280;62287;50.858;0.252;2023-07-22T02:21:04;101221.62;;;18.79;38.15
73936;BME280;62287;50.858;0.252;2023-07-22T02:21:36;101223.60;;;18.61;38.09
73936;BME280;62287;50.858;0.252;2023-07-22T02:22:08;101223.34;;;19.12;38.01
73936;BME280;62287;50.858;0.252;2023-07-22T02:22:40;101223.34;;;18.77;38.14
73936;BME280;62287;50.858;0.252;2023-07-22T02:23:12;101222.94;;;18.89;38.23
73936;BME280;62287;50.858;0.252;2023-07-22T02:23:47;101222.53;;;18.69;38.22
73936;BME280;62287;50.858;0.252;2023-07-22T02:24:20;101221.30;;;18.26;38.13
73936;BME280;62287;50.858;0.252;2023-07-22T02:24:53;101222.08;;;18.56;38.14
73936;BME280;62287;50.858;0.252;2023-07-22T02:25:26;101219.84;;;18.67;38.06
73936;BME280;62287;50.858;0.252;2023-07-22T02:25:58;101219.12;;;18.69;38.03
73936;BME280;62287;50.858;0.252;2023-07-22T02:26:30;101221.70;;;18.87;38.15
73936;BME280;62287;50.858;0.252;2023-07-22T02:27:04;101220.26;;;18.68;38.10
73936;BME280;62287;50.858;0.252;2023-07-22T02:27:36;101219.17;;;18.72;38.20
73936;BME280;62287;50.858;0.252;2023-07-22T02:28:07;101218.06;;;18.39;38.40
73936;BME280;62287;50.858;0.252;2023-07-22T02:28:39;101219.51;;;18.34;38.44
73936;BME280;62287;50.858;0.252;2023-07-22T02:29:11;101219.15;;;18.44;38.42
73936;BME280;62287;50.858;0.252;2023-07-22T02:29:45;101221.35;;;18.31;38.39
73936;BME280;62287;50.858;0.252;2023-07-22T02:30:17;101220.90;;;18.36;38.41
73936;BME280;62287;50.858;0.252;2023-07-22T02:30:50;101217.11;;;17.97;38.55
73936;BME280;62287;50.858;0.252;2023-07-22T02:31:21;101217.51;;;18.69;38.49
73936;BME280;62287;50.858;0.252;2023-07-22T02:31:55;101217.60;;;18.09;38.42
73936;BME280;62287;50.858;0.252;2023-07-22T02:32:26;101216.59;;;18.00;38.50
73936;BME280;62287;50.858;0.252;2023-07-22T02:32:58;101218.33;;;17.74;38.57
73936;BME280;62287;50.858;0.252;2023-07-22T02:33:31;101218.52;;;18.31;38.53
73936;BME280;62287;50.858;0.252;2023-07-22T02:34:05;101218.97;;;18.17;38.57
73936;BME280;62287;50.858;0.252;2023-07-22T02:34:36;101218.01;;;18.70;38.50
73936;BME280;62287;50.858;0.252;2023-07-22T02:35:09;101218.86;;;18.30;38.48
73936;BME280;62287;50.858;0.252;2023-07-22T02:35:41;101218.45;;;18.21;38.45
73936;BME280;62287;50.858;0.252;2023-07-22T02:36:13;101216.12;;;18.67;38.41
73936;BME280;62287;50.858;0.252;2023-07-22T02:36:46;101218.82;;;18.21;38.47
73936;BME280;62287;50.858;0.252;2023-07-22T02:37:17;101218.10;;;18.30;38.41
73936;BME280;62287;50.858;0.252;2023-07-22T02:37:53;101220.42;;;18.63;38.42
73936;BME280;62287;50.858;0.252;2023-07-22T02:38:25;101217.96;;;18.76;38.45
73936;BME280;62287;50.858;0.252;2023-07-22T02:38:58;101218.90;;;18.36;38.36
73936;BME280;62287;50.858;0.252;2023-07-22T02:39:30;101218.83;;;18.68;38.41
73936;BME280;62287;50.858;0.252;2023-07-22T02:40:05;101218.84;;;18.86;38.25
73936;BME280;62287;50.858;0.252;2023-07-22T02:40:36;101218.72;;;18.43;38.38
73936;BME280;62287;50.858;0.252;2023-07-22T02:41:08;101217.15;;;18.39;38.31
73936;BME280;62287;50.858;0.252;2023-07-22T02:41:39;101215.22;;;18.29;38.36
73936;BME280;62287;50.858;0.252;2023-07-22T02:42:10;101216.00;;;18.47;38.20
73936;BME280;62287;50.858;0.252;2023-07-22T02:42:46;101216.83;;;18.84;38.24
73936;BME280;62287;50.858;0.252;2023-07-22T02:43:18;101216.36;;;18.74;38.27
73936;BME280;62287;50.858;0.252;2023-07-22T02:43:51;101215.09;;;18.32;38.35
73936;BME280;62287;50.858;0.252;2023-07-22T02:44:23;101214.64;;;18.41;38.27
73936;BME280;62287;50.858;0.252;2023-07-22T02:44:55;101214.42;;;18.70;38.34
73936;BME280;62287;50.858;0.252;2023-07-22T02:45:28;101214.39;;;18.13;38.43
73936;BME280;62287;50.858;0.252;2023-07-22T02:46:06;101214.34;;;18.07;38.26
73936;BME280;62287;50.858;0.252;2023-07-22T02:46:37;101216.09;;;18.97;38.15
73936;BME280;62287;50.858;0.252;2023-07-22T02:47:10;101214.53;;;18.86;38.15
73936;BME280;62287;50.858;0.252;2023-07-22T02:47:41;101212.61;;;18.42;38.32
73936;BME280;62287;50.858;0.252;2023-07-22T02:48:12;101213.35;;;18.15;38.39
73936;BME280;62287;50.858;0.252;2023-07-22T02:48:45;101213.00;;;18.42;38.35
73936;BME280;62287;50.858;0.252;2023-07-22T02:49:18;101212.43;;;18.07;38.25
73936;BME280;62287;50.858;0.252;2023-07-22T02:49:50;101211.99;;;18.23;38.41
73936;BME280;62287;50.858;0.252;2023-07-22T02:50:22;101212.57;;;18.23;38.36
73936;BME280;62287;50.858;0.252;2023-07-22T02:50:55;101213.87;;;18.48;38.23
73936;BME280;62287;50.858;0.252;2023-07-22T02:51:31;101212.23;;;18.87;38.05
73936;BME280;62287;50.858;0.252;2023-07-22T02:52:04;101212.30;;;18.53;38.10
73936;BME280;62287;50.858;0.252;2023-07-22T02:52:37;101212.91;;;18.75;38.26
73936;BME280;62287;50.858;0.252;2023-07-22T02:53:09;101215.38;;;18.38;38.39
73936;BME280;62287;50.858;0.252;2023-07-22T02:53:41;101213.94;;;18.56;38.55
73936;BME280;62287;50.858;0.252;2023-07-22T02:54:14;101215.79;;;18.10;38.60
73936;BME280;62287;50.858;0.252;2023-07-22T02:55:06;101215.96;;;18.14;38.57
73936;BME280;62287;50.858;0.252;2023-07-22T02:55:37;101215.97;;;18.22;38.48
73936;BME280;62287;50.858;0.252;2023-07-22T02:56:10;101216.07;;;18.07;38.57
73936;BME280;62287;50.858;0.252;2023-07-22T02:56:47;101215.20;;;18.26;38.50
73936;BME280;62287;50.858;0.252;2023-07-22T02:57:20;101214.88;;;18.30;38.42
73936;BME280;62287;50.858;0.252;2023-07-22T02:57:55;101213.57;;;18.09;38.63